Ophir, Oregon
Current Conditions -  °F | °C
As of 2:23 AM on Thursday 23 Oct 2014 (Local Time) from KBOK Reporting Station
Heavy Rain Heavy Rain  
Wind Chill: 57°   Ceiling: 100
Heat Index: 57°   Visibility: 0.75mi
Dew Point: 57°   Wind: 5mph
Humidity: 100%   Direction: 230°SW
Pressure: 29.88"   Gusts: NA
Location:  42.56°N, 124.39°W
Report Text: KBOK 230923Z AUTO 23004KT 3/4SM +RA BR OVC001 14/14 A2988 RMK AO2 P0017
Loading
Personal Weather Stations






























Interactive Weather Map
Tropical Storm Tracking
New forecast layout! Learn more

10-Day Weather Forecast

Advertisements
Track Severe Weather on mobile